Fort Sumner, New Mexico
Current Conditions -  °F | °C
As of 4:56 AM on Monday 24 Nov 2014 (Local Time) from K4MR Reporting Station
Clear Clear  
Wind Chill: 19°   Ceiling: Unl
Heat Index: 29°   Visibility: 10mi
Dew Point: 26°   Wind: 13mph
Humidity: 88%   Direction: 250°WSW
Pressure: 30.02"   Gusts: NA
Location:  34.47°N, 104.25°W
Report Text: K4MR 241156Z AUTO 25011KT 10SM CLR M02/M03 A3002 RMK AO2 SLP177 T10171034 10007 21021 50006
Loading
Personal Weather Stations






























Interactive Weather Map New forecast layout! Learn more

10-Day Weather Forecast

Advertisements
Track Severe Weather on mobile